sensor_id;sensor_type;location;lat;lon;timestamp;P1;durP1;ratioP1;P2;durP2;ratioP2
27163;SDS011;14685;50.618;7.024;2022-12-07T00:01:52;21.25;;;13.85;;
27163;SDS011;14685;50.618;7.024;2022-12-07T00:04:20;20.85;;;12.70;;
27163;SDS011;14685;50.618;7.024;2022-12-07T00:06:50;17.35;;;12.00;;
27163;SDS011;14685;50.618;7.024;2022-12-07T00:09:19;19.05;;;12.30;;
27163;SDS011;14685;50.618;7.024;2022-12-07T00:11:48;18.83;;;12.27;;
27163;SDS011;14685;50.618;7.024;2022-12-07T00:14:16;14.00;;;10.98;;
27163;SDS011;14685;50.618;7.024;2022-12-07T00:16:44;16.48;;;11.38;;
27163;SDS011;14685;50.618;7.024;2022-12-07T00:19:12;14.82;;;11.45;;
27163;SDS011;14685;50.618;7.024;2022-12-07T00:21:40;12.93;;;10.55;;
27163;SDS011;14685;50.618;7.024;2022-12-07T00:24:07;14.20;;;11.02;;
27163;SDS011;14685;50.618;7.024;2022-12-07T00:26:37;15.40;;;10.95;;
27163;SDS011;14685;50.618;7.024;2022-12-07T00:29:06;15.23;;;10.85;;
27163;SDS011;14685;50.618;7.024;2022-12-07T00:32:00;13.88;;;10.07;;
27163;SDS011;14685;50.618;7.024;2022-12-07T00:34:27;17.63;;;10.95;;
27163;SDS011;14685;50.618;7.024;2022-12-07T00:36:54;14.05;;;10.38;;
27163;SDS011;14685;50.618;7.024;2022-12-07T00:39:21;14.80;;;10.18;;
27163;SDS011;14685;50.618;7.024;2022-12-07T00:41:48;13.13;;;9.25;;
27163;SDS011;14685;50.618;7.024;2022-12-07T00:44:15;13.35;;;10.02;;
27163;SDS011;14685;50.618;7.024;2022-12-07T00:46:41;12.80;;;9.88;;
27163;SDS011;14685;50.618;7.024;2022-12-07T00:49:11;13.82;;;9.88;;
27163;SDS011;14685;50.618;7.024;2022-12-07T00:51:38;16.27;;;10.45;;
27163;SDS011;14685;50.618;7.024;2022-12-07T00:54:09;15.30;;;10.48;;
27163;SDS011;14685;50.618;7.024;2022-12-07T00:56:35;10.93;;;8.90;;
27163;SDS011;14685;50.618;7.024;2022-12-07T00:59:03;15.95;;;11.18;;
27163;SDS011;14685;50.618;7.024;2022-12-07T01:01:33;13.55;;;10.48;;
27163;SDS011;14685;50.618;7.024;2022-12-07T01:04:02;14.60;;;10.50;;
27163;SDS011;14685;50.618;7.024;2022-12-07T01:06:30;14.30;;;10.20;;
27163;SDS011;14685;50.618;7.024;2022-12-07T01:08:57;14.23;;;10.05;;
27163;SDS011;14685;50.618;7.024;2022-12-07T01:11:26;11.85;;;9.55;;
27163;SDS011;14685;50.618;7.024;2022-12-07T01:13:57;13.85;;;9.98;;
27163;SDS011;14685;50.618;7.024;2022-12-07T01:16:25;12.93;;;9.02;;
27163;SDS011;14685;50.618;7.024;2022-12-07T01:18:54;11.45;;;8.82;;
27163;SDS011;14685;50.618;7.024;2022-12-07T01:21:23;12.07;;;9.60;;
27163;SDS011;14685;50.618;7.024;2022-12-07T01:23:56;12.40;;;9.75;;
27163;SDS011;14685;50.618;7.024;2022-12-07T01:26:24;12.40;;;10.32;;
27163;SDS011;14685;50.618;7.024;2022-12-07T01:28:52;13.02;;;9.52;;
27163;SDS011;14685;50.618;7.024;2022-12-07T01:31:22;14.32;;;9.30;;
27163;SDS011;14685;50.618;7.024;2022-12-07T01:33:54;13.48;;;10.30;;
27163;SDS011;14685;50.618;7.024;2022-12-07T01:36:32;14.00;;;10.25;;
27163;SDS011;14685;50.618;7.024;2022-12-07T01:39:04;13.20;;;9.85;;
27163;SDS011;14685;50.618;7.024;2022-12-07T01:41:33;16.55;;;10.32;;
27163;SDS011;14685;50.618;7.024;2022-12-07T01:47:25;14.82;;;10.65;;
27163;SDS011;14685;50.618;7.024;2022-12-07T01:49:52;13.65;;;10.45;;
27163;SDS011;14685;50.618;7.024;2022-12-07T01:52:22;13.13;;;10.40;;
27163;SDS011;14685;50.618;7.024;2022-12-07T01:54:54;16.42;;;11.52;;
27163;SDS011;14685;50.618;7.024;2022-12-07T01:57:23;13.68;;;10.80;;
27163;SDS011;14685;50.618;7.024;2022-12-07T01:59:51;15.35;;;11.82;;
27163;SDS011;14685;50.618;7.024;2022-12-07T02:02:21;15.52;;;11.65;;
27163;SDS011;14685;50.618;7.024;2022-12-07T02:04:52;14.95;;;10.65;;
27163;SDS011;14685;50.618;7.024;2022-12-07T02:07:20;20.83;;;11.55;;
27163;SDS011;14685;50.618;7.024;2022-12-07T02:09:49;17.60;;;12.13;;
27163;SDS011;14685;50.618;7.024;2022-12-07T02:12:16;16.27;;;12.38;;
27163;SDS011;14685;50.618;7.024;2022-12-07T02:14:43;14.95;;;11.85;;
27163;SDS011;14685;50.618;7.024;2022-12-07T02:17:12;16.05;;;11.27;;
27163;SDS011;14685;50.618;7.024;2022-12-07T02:31:30;18.48;;;12.73;;
27163;SDS011;14685;50.618;7.024;2022-12-07T02:34:04;15.60;;;11.15;;
27163;SDS011;14685;50.618;7.024;2022-12-07T02:36:50;20.67;;;12.45;;
27163;SDS011;14685;50.618;7.024;2022-12-07T02:41:59;17.30;;;12.32;;
27163;SDS011;14685;50.618;7.024;2022-12-07T02:44:30;15.25;;;12.63;;
27163;SDS011;14685;50.618;7.024;2022-12-07T02:47:01;16.52;;;12.20;;
27163;SDS011;14685;50.618;7.024;2022-12-07T02:49:33;15.10;;;11.23;;
27163;SDS011;14685;50.618;7.024;2022-12-07T02:52:01;18.10;;;12.13;;
27163;SDS011;14685;50.618;7.024;2022-12-07T02:54:28;15.73;;;12.18;;
27163;SDS011;14685;50.618;7.024;2022-12-07T03:08:07;16.80;;;12.50;;
27163;SDS011;14685;50.618;7.024;2022-12-07T03:10:58;16.90;;;12.70;;
27163;SDS011;14685;50.618;7.024;2022-12-07T03:16:09;17.92;;;12.88;;
27163;SDS011;14685;50.618;7.024;2022-12-07T03:19:06;18.40;;;13.27;;
27163;SDS011;14685;50.618;7.024;2022-12-07T03:21:43;16.70;;;12.88;;
27163;SDS011;14685;50.618;7.024;2022-12-07T03:24:17;17.40;;;13.00;;
27163;SDS011;14685;50.618;7.024;2022-12-07T03:26:48;16.77;;;13.32;;
27163;SDS011;14685;50.618;7.024;2022-12-07T03:29:20;16.27;;;12.32;;
27163;SDS011;14685;50.618;7.024;2022-12-07T03:31:56;19.38;;;12.93;;
27163;SDS011;14685;50.618;7.024;2022-12-07T03:34:47;18.63;;;14.45;;
27163;SDS011;14685;50.618;7.024;2022-12-07T03:40:23;17.08;;;12.77;;
27163;SDS011;14685;50.618;7.024;2022-12-07T03:42:59;18.90;;;13.30;;
27163;SDS011;14685;50.618;7.024;2022-12-07T03:45:31;18.33;;;13.27;;
27163;SDS011;14685;50.618;7.024;2022-12-07T03:48:36;17.92;;;12.07;;
27163;SDS011;14685;50.618;7.024;2022-12-07T03:51:20;19.67;;;13.30;;
27163;SDS011;14685;50.618;7.024;2022-12-07T03:53:54;17.13;;;12.93;;
27163;SDS011;14685;50.618;7.024;2022-12-07T03:56:51;17.63;;;13.40;;
27163;SDS011;14685;50.618;7.024;2022-12-07T03:59:19;19.75;;;13.73;;
27163;SDS011;14685;50.618;7.024;2022-12-07T04:01:52;17.50;;;13.60;;
27163;SDS011;14685;50.618;7.024;2022-12-07T04:04:21;18.40;;;13.68;;
27163;SDS011;14685;50.618;7.024;2022-12-07T04:06:49;20.00;;;14.38;;
27163;SDS011;14685;50.618;7.024;2022-12-07T04:09:16;19.10;;;14.50;;
27163;SDS011;14685;50.618;7.024;2022-12-07T04:11:43;19.98;;;13.98;;
27163;SDS011;14685;50.618;7.024;2022-12-07T04:14:10;17.38;;;12.77;;
27163;SDS011;14685;50.618;7.024;2022-12-07T04:16:47;19.80;;;14.57;;
27163;SDS011;14685;50.618;7.024;2022-12-07T04:19:15;18.55;;;14.07;;
27163;SDS011;14685;50.618;7.024;2022-12-07T04:21:44;19.58;;;14.20;;
27163;SDS011;14685;50.618;7.024;2022-12-07T04:24:11;18.05;;;13.15;;
27163;SDS011;14685;50.618;7.024;2022-12-07T04:26:40;20.63;;;14.43;;
27163;SDS011;14685;50.618;7.024;2022-12-07T04:29:07;21.35;;;15.43;;
27163;SDS011;14685;50.618;7.024;2022-12-07T04:31:35;17.65;;;13.77;;
27163;SDS011;14685;50.618;7.024;2022-12-07T04:34:02;18.38;;;14.80;;
27163;SDS011;14685;50.618;7.024;2022-12-07T04:36:30;19.55;;;14.75;;
27163;SDS011;14685;50.618;7.024;2022-12-07T04:38:57;21.10;;;14.68;;
27163;SDS011;14685;50.618;7.024;2022-12-07T04:41:24;20.42;;;15.27;;
27163;SDS011;14685;50.618;7.024;2022-12-07T04:43:55;21.88;;;14.82;;
27163;SDS011;14685;50.618;7.024;2022-12-07T04:46:23;21.10;;;14.35;;
27163;SDS011;14685;50.618;7.024;2022-12-07T04:48:51;18.60;;;14.80;;
27163;SDS011;14685;50.618;7.024;2022-12-07T04:51:20;21.52;;;14.63;;
27163;SDS011;14685;50.618;7.024;2022-12-07T04:53:49;21.15;;;14.02;;
27163;SDS011;14685;50.618;7.024;2022-12-07T04:56:16;22.33;;;14.68;;
27163;SDS011;14685;50.618;7.024;2022-12-07T04:58:44;22.92;;;16.02;;
27163;SDS011;14685;50.618;7.024;2022-12-07T05:01:13;22.67;;;16.17;;
27163;SDS011;14685;50.618;7.024;2022-12-07T05:03:42;22.02;;;15.13;;
27163;SDS011;14685;50.618;7.024;2022-12-07T05:06:09;21.38;;;16.23;;
27163;SDS011;14685;50.618;7.024;2022-12-07T05:08:39;24.42;;;16.20;;
27163;SDS011;14685;50.618;7.024;2022-12-07T05:11:09;22.27;;;16.52;;
27163;SDS011;14685;50.618;7.024;2022-12-07T05:13:56;25.10;;;17.65;;
27163;SDS011;14685;50.618;7.024;2022-12-07T05:16:23;21.40;;;15.73;;
27163;SDS011;14685;50.618;7.024;2022-12-07T05:18:52;21.40;;;15.52;;
27163;SDS011;14685;50.618;7.024;2022-12-07T05:21:19;21.55;;;15.95;;
27163;SDS011;14685;50.618;7.024;2022-12-07T05:23:46;22.83;;;16.60;;
27163;SDS011;14685;50.618;7.024;2022-12-07T05:26:14;25.67;;;16.65;;
27163;SDS011;14685;50.618;7.024;2022-12-07T05:28:41;22.25;;;16.38;;
27163;SDS011;14685;50.618;7.024;2022-12-07T05:31:08;24.13;;;16.50;;
27163;SDS011;14685;50.618;7.024;2022-12-07T05:33:36;23.20;;;15.68;;
27163;SDS011;14685;50.618;7.024;2022-12-07T05:36:05;22.33;;;15.82;;
27163;SDS011;14685;50.618;7.024;2022-12-07T05:38:33;25.65;;;16.95;;
27163;SDS011;14685;50.618;7.024;2022-12-07T05:41:04;24.73;;;16.25;;
27163;SDS011;14685;50.618;7.024;2022-12-07T05:43:32;27.70;;;16.83;;
27163;SDS011;14685;50.618;7.024;2022-12-07T05:46:00;24.95;;;16.73;;
27163;SDS011;14685;50.618;7.024;2022-12-07T05:48:27;25.70;;;17.33;;
27163;SDS011;14685;50.618;7.024;2022-12-07T05:50:54;22.77;;;15.90;;
27163;SDS011;14685;50.618;7.024;2022-12-07T05:53:21;23.75;;;17.67;;
27163;SDS011;14685;50.618;7.024;2022-12-07T05:55:49;25.95;;;16.17;;
27163;SDS011;14685;50.618;7.024;2022-12-07T05:58:16;22.40;;;16.38;;
27163;SDS011;14685;50.618;7.024;2022-12-07T06:01:02;25.40;;;15.85;;
27163;SDS011;14685;50.618;7.024;2022-12-07T06:03:29;25.02;;;16.95;;
27163;SDS011;14685;50.618;7.024;2022-12-07T06:05:57;26.58;;;17.25;;
27163;SDS011;14685;50.618;7.024;2022-12-07T06:08:24;23.27;;;16.30;;
27163;SDS011;14685;50.618;7.024;2022-12-07T06:10:51;21.20;;;15.35;;
27163;SDS011;14685;50.618;7.024;2022-12-07T06:13:37;23.10;;;16.40;;
27163;SDS011;14685;50.618;7.024;2022-12-07T06:16:12;19.45;;;14.18;;
27163;SDS011;14685;50.618;7.024;2022-12-07T06:18:40;20.63;;;14.05;;
27163;SDS011;14685;50.618;7.024;2022-12-07T06:21:07;23.85;;;14.80;;
27163;SDS011;14685;50.618;7.024;2022-12-07T06:23:35;21.42;;;15.88;;
27163;SDS011;14685;50.618;7.024;2022-12-07T06:26:02;25.67;;;16.27;;
27163;SDS011;14685;50.618;7.024;2022-12-07T06:28:29;26.00;;;16.30;;
27163;SDS011;14685;50.618;7.024;2022-12-07T06:31:00;24.92;;;15.63;;
27163;SDS011;14685;50.618;7.024;2022-12-07T06:33:33;25.60;;;16.13;;
27163;SDS011;14685;50.618;7.024;2022-12-07T06:36:00;28.52;;;16.55;;
27163;SDS011;14685;50.618;7.024;2022-12-07T06:38:27;20.30;;;13.95;;
27163;SDS011;14685;50.618;7.024;2022-12-07T06:40:53;21.25;;;14.43;;
27163;SDS011;14685;50.618;7.024;2022-12-07T06:43:20;22.77;;;14.98;;
27163;SDS011;14685;50.618;7.024;2022-12-07T06:45:48;22.90;;;13.95;;
27163;SDS011;14685;50.618;7.024;2022-12-07T06:48:15;20.08;;;13.93;;
27163;SDS011;14685;50.618;7.024;2022-12-07T06:50:46;19.48;;;12.82;;
27163;SDS011;14685;50.618;7.024;2022-12-07T06:53:20;16.77;;;11.60;;
27163;SDS011;14685;50.618;7.024;2022-12-07T06:55:47;16.88;;;12.95;;
27163;SDS011;14685;50.618;7.024;2022-12-07T06:58:14;18.40;;;11.60;;
27163;SDS011;14685;50.618;7.024;2022-12-07T07:00:43;19.20;;;11.38;;
27163;SDS011;14685;50.618;7.024;2022-12-07T07:03:10;19.70;;;11.20;;
27163;SDS011;14685;50.618;7.024;2022-12-07T07:05:37;19.90;;;11.23;;
27163;SDS011;14685;50.618;7.024;2022-12-07T07:08:04;13.65;;;10.40;;
27163;SDS011;14685;50.618;7.024;2022-12-07T07:10:47;17.53;;;10.90;;
27163;SDS011;14685;50.618;7.024;2022-12-07T07:13:14;12.98;;;9.82;;
27163;SDS011;14685;50.618;7.024;2022-12-07T07:15:41;21.40;;;9.93;;
27163;SDS011;14685;50.618;7.024;2022-12-07T07:18:08;14.95;;;8.77;;
27163;SDS011;14685;50.618;7.024;2022-12-07T07:20:35;12.73;;;8.70;;
27163;SDS011;14685;50.618;7.024;2022-12-07T07:23:03;13.32;;;8.50;;
27163;SDS011;14685;50.618;7.024;2022-12-07T07:25:30;11.80;;;8.82;;
27163;SDS011;14685;50.618;7.024;2022-12-07T07:27:59;16.40;;;10.20;;
27163;SDS011;14685;50.618;7.024;2022-12-07T07:30:26;17.52;;;12.10;;
27163;SDS011;14685;50.618;7.024;2022-12-07T07:32:57;18.75;;;12.90;;
27163;SDS011;14685;50.618;7.024;2022-12-07T07:35:25;19.55;;;12.13;;
27163;SDS011;14685;50.618;7.024;2022-12-07T07:37:53;17.48;;;12.15;;
27163;SDS011;14685;50.618;7.024;2022-12-07T07:40:20;22.80;;;12.07;;
27163;SDS011;14685;50.618;7.024;2022-12-07T07:42:48;23.58;;;12.38;;
27163;SDS011;14685;50.618;7.024;2022-12-07T07:45:16;18.13;;;12.05;;
27163;SDS011;14685;50.618;7.024;2022-12-07T07:47:43;20.80;;;12.82;;
27163;SDS011;14685;50.618;7.024;2022-12-07T07:50:10;21.27;;;13.30;;
27163;SDS011;14685;50.618;7.024;2022-12-07T07:52:37;22.27;;;12.13;;
27163;SDS011;14685;50.618;7.024;2022-12-07T07:55:05;21.05;;;13.10;;
27163;SDS011;14685;50.618;7.024;2022-12-07T07:57:35;17.73;;;11.93;;
27163;SDS011;14685;50.618;7.024;2022-12-07T08:00:04;21.67;;;12.57;;
27163;SDS011;14685;50.618;7.024;2022-12-07T08:02:33;21.85;;;12.18;;
27163;SDS011;14685;50.618;7.024;2022-12-07T08:05:00;19.45;;;10.60;;
27163;SDS011;14685;50.618;7.024;2022-12-07T08:07:27;21.85;;;12.82;;
27163;SDS011;14685;50.618;7.024;2022-12-07T08:09:54;17.60;;;11.70;;
27163;SDS011;14685;50.618;7.024;2022-12-07T08:12:21;21.15;;;10.82;;
27163;SDS011;14685;50.618;7.024;2022-12-07T08:14:48;18.63;;;11.05;;
27163;SDS011;14685;50.618;7.024;2022-12-07T08:17:15;18.48;;;11.05;;
27163;SDS011;14685;50.618;7.024;2022-12-07T08:19:41;17.17;;;9.88;;
27163;SDS011;14685;50.618;7.024;2022-12-07T08:22:08;16.05;;;9.90;;
27163;SDS011;14685;50.618;7.024;2022-12-07T08:24:37;16.85;;;9.55;;
27163;SDS011;14685;50.618;7.024;2022-12-07T08:27:03;16.38;;;9.73;;
27163;SDS011;14685;50.618;7.024;2022-12-07T08:29:30;16.27;;;10.05;;
27163;SDS011;14685;50.618;7.024;2022-12-07T08:31:57;17.75;;;9.90;;
27163;SDS011;14685;50.618;7.024;2022-12-07T08:34:34;16.35;;;11.30;;
27163;SDS011;14685;50.618;7.024;2022-12-07T08:37:01;16.75;;;10.18;;
27163;SDS011;14685;50.618;7.024;2022-12-07T08:39:30;17.35;;;10.57;;
27163;SDS011;14685;50.618;7.024;2022-12-07T08:41:58;19.23;;;9.65;;
27163;SDS011;14685;50.618;7.024;2022-12-07T08:44:25;18.33;;;10.35;;
27163;SDS011;14685;50.618;7.024;2022-12-07T08:46:53;16.02;;;9.40;;
27163;SDS011;14685;50.618;7.024;2022-12-07T08:49:31;17.55;;;9.73;;
27163;SDS011;14685;50.618;7.024;2022-12-07T08:52:02;13.50;;;8.93;;
27163;SDS011;14685;50.618;7.024;2022-12-07T08:54:31;16.20;;;9.00;;
27163;SDS011;14685;50.618;7.024;2022-12-07T08:57:01;16.02;;;9.00;;
27163;SDS011;14685;50.618;7.024;2022-12-07T08:59:28;14.48;;;8.68;;
27163;SDS011;14685;50.618;7.024;2022-12-07T09:01:55;18.55;;;9.18;;
27163;SDS011;14685;50.618;7.024;2022-12-07T09:04:23;16.77;;;8.80;;
27163;SDS011;14685;50.618;7.024;2022-12-07T09:06:50;15.40;;;9.73;;
27163;SDS011;14685;50.618;7.024;2022-12-07T09:09:17;16.27;;;8.60;;
27163;SDS011;14685;50.618;7.024;2022-12-07T09:11:43;16.67;;;9.05;;
27163;SDS011;14685;50.618;7.024;2022-12-07T09:14:11;13.50;;;8.63;;
27163;SDS011;14685;50.618;7.024;2022-12-07T09:16:39;17.50;;;9.18;;
27163;SDS011;14685;50.618;7.024;2022-12-07T09:19:06;15.02;;;8.85;;
27163;SDS011;14685;50.618;7.024;2022-12-07T09:21:34;16.48;;;8.98;;
27163;SDS011;14685;50.618;7.024;2022-12-07T09:24:01;13.98;;;8.48;;
27163;SDS011;14685;50.618;7.024;2022-12-07T09:26:28;13.40;;;7.93;;
27163;SDS011;14685;50.618;7.024;2022-12-07T09:28:55;13.73;;;7.68;;
27163;SDS011;14685;50.618;7.024;2022-12-07T09:31:24;16.10;;;7.60;;
27163;SDS011;14685;50.618;7.024;2022-12-07T09:33:59;14.70;;;7.80;;
27163;SDS011;14685;50.618;7.024;2022-12-07T09:36:27;11.57;;;7.47;;
27163;SDS011;14685;50.618;7.024;2022-12-07T09:38:55;14.60;;;6.82;;
27163;SDS011;14685;50.618;7.024;2022-12-07T09:41:22;14.40;;;7.15;;
27163;SDS011;14685;50.618;7.024;2022-12-07T09:43:52;13.48;;;7.20;;
27163;SDS011;14685;50.618;7.024;2022-12-07T09:46:23;9.40;;;6.32;;
27163;SDS011;14685;50.618;7.024;2022-12-07T09:48:50;15.48;;;7.07;;
27163;SDS011;14685;50.618;7.024;2022-12-07T09:51:18;13.15;;;7.07;;
27163;SDS011;14685;50.618;7.024;2022-12-07T09:53:50;11.25;;;5.70;;
27163;SDS011;14685;50.618;7.024;2022-12-07T09:56:19;11.63;;;6.30;;
27163;SDS011;14685;50.618;7.024;2022-12-07T09:58:50;8.98;;;5.32;;
27163;SDS011;14685;50.618;7.024;2022-12-07T10:01:30;13.57;;;6.40;;
27163;SDS011;14685;50.618;7.024;2022-12-07T10:04:13;12.73;;;6.07;;
27163;SDS011;14685;50.618;7.024;2022-12-07T10:06:50;12.13;;;5.68;;
27163;SDS011;14685;50.618;7.024;2022-12-07T10:09:18;13.48;;;6.38;;
27163;SDS011;14685;50.618;7.024;2022-12-07T10:14:39;13.18;;;6.55;;
27163;SDS011;14685;50.618;7.024;2022-12-07T10:17:36;12.98;;;6.75;;
27163;SDS011;14685;50.618;7.024;2022-12-07T10:20:20;12.85;;;6.70;;
27163;SDS011;14685;50.618;7.024;2022-12-07T10:22:58;14.30;;;6.68;;
27163;SDS011;14685;50.618;7.024;2022-12-07T10:25:30;13.13;;;6.90;;
27163;SDS011;14685;50.618;7.024;2022-12-07T10:28:10;13.10;;;6.63;;
27163;SDS011;14685;50.618;7.024;2022-12-07T10:31:00;15.50;;;7.00;;
27163;SDS011;14685;50.618;7.024;2022-12-07T10:33:50;11.88;;;5.80;;
27163;SDS011;14685;50.618;7.024;2022-12-07T10:36:26;9.63;;;6.15;;
27163;SDS011;14685;50.618;7.024;2022-12-07T10:39:14;11.73;;;6.20;;
27163;SDS011;14685;50.618;7.024;2022-12-07T10:41:54;9.45;;;5.65;;
27163;SDS011;14685;50.618;7.024;2022-12-07T10:44:29;10.65;;;5.85;;
27163;SDS011;14685;50.618;7.024;2022-12-07T11:01:29;16.10;;;5.65;;
27163;SDS011;14685;50.618;7.024;2022-12-07T11:06:29;7.68;;;4.18;;
27163;SDS011;14685;50.618;7.024;2022-12-07T11:15:29;10.57;;;4.50;;
27163;SDS011;14685;50.618;7.024;2022-12-07T11:23:39;10.43;;;4.43;;
27163;SDS011;14685;50.618;7.024;2022-12-07T11:34:25;8.45;;;4.15;;
27163;SDS011;14685;50.618;7.024;2022-12-07T11:37:13;14.00;;;4.18;;
27163;SDS011;14685;50.618;7.024;2022-12-07T11:39:44;9.85;;;4.25;;
27163;SDS011;14685;50.618;7.024;2022-12-07T11:42:27;6.68;;;4.20;;
27163;SDS011;14685;50.618;7.024;2022-12-07T11:45:16;9.45;;;4.43;;
27163;SDS011;14685;50.618;7.024;2022-12-07T11:48:01;8.07;;;3.70;;
27163;SDS011;14685;50.618;7.024;2022-12-07T11:50:44;6.15;;;3.88;;
27163;SDS011;14685;50.618;7.024;2022-12-07T11:53:25;10.43;;;4.18;;
27163;SDS011;14685;50.618;7.024;2022-12-07T11:56:03;7.93;;;4.03;;
27163;SDS011;14685;50.618;7.024;2022-12-07T12:03:54;7.80;;;3.50;;
27163;SDS011;14685;50.618;7.024;2022-12-07T12:06:27;9.25;;;3.90;;
27163;SDS011;14685;50.618;7.024;2022-12-07T12:08:56;8.18;;;3.78;;
27163;SDS011;14685;50.618;7.024;2022-12-07T12:23:24;7.40;;;4.63;;
27163;SDS011;14685;50.618;7.024;2022-12-07T12:26:20;7.32;;;5.13;;
27163;SDS011;14685;50.618;7.024;2022-12-07T12:31:38;11.80;;;4.47;;
27163;SDS011;14685;50.618;7.024;2022-12-07T12:36:59;12.52;;;5.88;;
27163;SDS011;14685;50.618;7.024;2022-12-07T12:39:26;15.38;;;5.47;;
27163;SDS011;14685;50.618;7.024;2022-12-07T12:41:54;12.95;;;5.65;;
27163;SDS011;14685;50.618;7.024;2022-12-07T12:44:41;9.20;;;5.13;;
27163;SDS011;14685;50.618;7.024;2022-12-07T12:50:24;8.52;;;4.47;;
27163;SDS011;14685;50.618;7.024;2022-12-07T12:53:15;16.30;;;5.15;;
27163;SDS011;14685;50.618;7.024;2022-12-07T12:56:11;9.98;;;5.32;;
27163;SDS011;14685;50.618;7.024;2022-12-07T13:10:02;9.77;;;5.90;;
27163;SDS011;14685;50.618;7.024;2022-12-07T13:12:30;11.13;;;5.57;;
27163;SDS011;14685;50.618;7.024;2022-12-07T13:14:58;8.35;;;5.07;;
27163;SDS011;14685;50.618;7.024;2022-12-07T13:20:00;11.10;;;5.32;;
27163;SDS011;14685;50.618;7.024;2022-12-07T13:27:48;10.80;;;5.10;;
27163;SDS011;14685;50.618;7.024;2022-12-07T13:30:44;10.60;;;5.45;;
27163;SDS011;14685;50.618;7.024;2022-12-07T13:33:27;12.40;;;5.32;;
27163;SDS011;14685;50.618;7.024;2022-12-07T13:35:55;8.45;;;4.78;;
27163;SDS011;14685;50.618;7.024;2022-12-07T13:38:32;6.80;;;4.53;;
27163;SDS011;14685;50.618;7.024;2022-12-07T13:41:13;8.57;;;4.53;;
27163;SDS011;14685;50.618;7.024;2022-12-07T13:43:46;7.53;;;4.20;;
27163;SDS011;14685;50.618;7.024;2022-12-07T13:46:27;9.85;;;4.53;;
27163;SDS011;14685;50.618;7.024;2022-12-07T13:49:22;10.80;;;4.30;;
27163;SDS011;14685;50.618;7.024;2022-12-07T13:51:52;5.90;;;3.80;;
27163;SDS011;14685;50.618;7.024;2022-12-07T13:54:20;9.65;;;3.92;;
27163;SDS011;14685;50.618;7.024;2022-12-07T13:56:48;6.20;;;3.85;;
27163;SDS011;14685;50.618;7.024;2022-12-07T13:59:24;9.38;;;4.35;;
27163;SDS011;14685;50.618;7.024;2022-12-07T14:01:59;11.50;;;4.57;;
27163;SDS011;14685;50.618;7.024;2022-12-07T14:04:35;8.93;;;4.32;;
27163;SDS011;14685;50.618;7.024;2022-12-07T14:10:03;7.90;;;3.42;;
27163;SDS011;14685;50.618;7.024;2022-12-07T14:12:32;7.60;;;3.70;;
27163;SDS011;14685;50.618;7.024;2022-12-07T14:15:02;6.30;;;3.33;;
27163;SDS011;14685;50.618;7.024;2022-12-07T14:17:31;6.45;;;3.35;;
27163;SDS011;14685;50.618;7.024;2022-12-07T14:19:59;8.98;;;4.25;;
27163;SDS011;14685;50.618;7.024;2022-12-07T14:25:00;10.88;;;4.45;;
27163;SDS011;14685;50.618;7.024;2022-12-07T14:27:46;7.88;;;3.97;;
27163;SDS011;14685;50.618;7.024;2022-12-07T14:30:26;7.88;;;3.85;;
27163;SDS011;14685;50.618;7.024;2022-12-07T14:32:57;10.98;;;4.60;;
27163;SDS011;14685;50.618;7.024;2022-12-07T14:35:26;10.68;;;4.68;;
27163;SDS011;14685;50.618;7.024;2022-12-07T14:37:54;9.40;;;5.38;;
27163;SDS011;14685;50.618;7.024;2022-12-07T14:40:22;9.90;;;5.05;;
27163;SDS011;14685;50.618;7.024;2022-12-07T14:42:52;25.30;;;10.43;;
27163;SDS011;14685;50.618;7.024;2022-12-07T14:45:23;10.77;;;5.35;;
27163;SDS011;14685;50.618;7.024;2022-12-07T14:47:50;12.25;;;4.80;;
27163;SDS011;14685;50.618;7.024;2022-12-07T14:50:40;9.40;;;5.03;;
27163;SDS011;14685;50.618;7.024;2022-12-07T14:53:36;10.20;;;5.95;;
27163;SDS011;14685;50.618;7.024;2022-12-07T14:56:07;11.85;;;6.15;;
27163;SDS011;14685;50.618;7.024;2022-12-07T14:58:34;9.20;;;4.90;;
27163;SDS011;14685;50.618;7.024;2022-12-07T15:01:01;8.85;;;4.45;;
27163;SDS011;14685;50.618;7.024;2022-12-07T15:03:28;10.90;;;4.72;;
27163;SDS011;14685;50.618;7.024;2022-12-07T15:05:55;32.15;;;13.45;;
27163;SDS011;14685;50.618;7.024;2022-12-07T15:08:22;11.15;;;7.00;;
27163;SDS011;14685;50.618;7.024;2022-12-07T15:10:49;11.57;;;5.68;;
27163;SDS011;14685;50.618;7.024;2022-12-07T15:13:16;7.97;;;4.82;;
27163;SDS011;14685;50.618;7.024;2022-12-07T15:16:16;8.90;;;4.10;;
27163;SDS011;14685;50.618;7.024;2022-12-07T15:18:47;8.25;;;4.30;;
27163;SDS011;14685;50.618;7.024;2022-12-07T15:21:34;6.80;;;4.20;;
27163;SDS011;14685;50.618;7.024;2022-12-07T15:24:00;9.50;;;3.95;;
27163;SDS011;14685;50.618;7.024;2022-12-07T15:26:27;8.73;;;4.28;;
27163;SDS011;14685;50.618;7.024;2022-12-07T15:28:54;14.20;;;5.10;;
27163;SDS011;14685;50.618;7.024;2022-12-07T15:31:21;9.98;;;4.85;;
27163;SDS011;14685;50.618;7.024;2022-12-07T15:34:08;11.23;;;4.88;;
27163;SDS011;14685;50.618;7.024;2022-12-07T15:36:35;9.82;;;4.53;;
27163;SDS011;14685;50.618;7.024;2022-12-07T15:39:03;9.70;;;5.18;;
27163;SDS011;14685;50.618;7.024;2022-12-07T15:41:39;9.20;;;5.07;;
27163;SDS011;14685;50.618;7.024;2022-12-07T15:44:08;10.43;;;4.65;;
27163;SDS011;14685;50.618;7.024;2022-12-07T15:46:57;12.50;;;5.68;;
27163;SDS011;14685;50.618;7.024;2022-12-07T15:49:26;9.38;;;4.57;;
27163;SDS011;14685;50.618;7.024;2022-12-07T15:51:53;9.63;;;5.18;;
27163;SDS011;14685;50.618;7.024;2022-12-07T15:54:27;9.18;;;4.22;;
27163;SDS011;14685;50.618;7.024;2022-12-07T15:56:59;33.00;;;14.82;;
27163;SDS011;14685;50.618;7.024;2022-12-07T15:59:28;21.42;;;9.10;;
27163;SDS011;14685;50.618;7.024;2022-12-07T16:01:56;9.68;;;4.93;;
27163;SDS011;14685;50.618;7.024;2022-12-07T16:04:24;10.73;;;4.57;;
27163;SDS011;14685;50.618;7.024;2022-12-07T16:06:56;9.82;;;5.70;;
27163;SDS011;14685;50.618;7.024;2022-12-07T16:09:24;10.88;;;5.10;;
27163;SDS011;14685;50.618;7.024;2022-12-07T16:11:55;8.38;;;4.53;;
27163;SDS011;14685;50.618;7.024;2022-12-07T16:14:23;10.82;;;4.95;;
27163;SDS011;14685;50.618;7.024;2022-12-07T16:16:53;6.45;;;4.80;;
27163;SDS011;14685;50.618;7.024;2022-12-07T16:19:23;11.25;;;5.07;;
27163;SDS011;14685;50.618;7.024;2022-12-07T16:21:50;8.10;;;4.88;;
27163;SDS011;14685;50.618;7.024;2022-12-07T16:24:19;11.10;;;6.05;;
27163;SDS011;14685;50.618;7.024;2022-12-07T16:26:47;10.48;;;5.20;;
27163;SDS011;14685;50.618;7.024;2022-12-07T16:29:17;7.85;;;5.22;;
27163;SDS011;14685;50.618;7.024;2022-12-07T16:31:49;11.77;;;5.25;;
27163;SDS011;14685;50.618;7.024;2022-12-07T16:34:17;10.05;;;5.57;;
27163;SDS011;14685;50.618;7.024;2022-12-07T16:36:45;13.23;;;7.38;;
27163;SDS011;14685;50.618;7.024;2022-12-07T16:39:32;12.80;;;5.82;;
27163;SDS011;14685;50.618;7.024;2022-12-07T16:42:00;10.80;;;5.88;;
27163;SDS011;14685;50.618;7.024;2022-12-07T16:44:27;12.15;;;5.95;;
27163;SDS011;14685;50.618;7.024;2022-12-07T16:46:54;10.57;;;5.97;;
27163;SDS011;14685;50.618;7.024;2022-12-07T16:49:22;11.50;;;5.53;;
27163;SDS011;14685;50.618;7.024;2022-12-07T16:51:50;8.30;;;4.57;;
27163;SDS011;14685;50.618;7.024;2022-12-07T16:54:37;6.93;;;4.78;;
27163;SDS011;14685;50.618;7.024;2022-12-07T16:57:04;5.75;;;4.70;;
27163;SDS011;14685;50.618;7.024;2022-12-07T16:59:31;7.72;;;5.22;;
27163;SDS011;14685;50.618;7.024;2022-12-07T17:01:58;9.85;;;5.32;;